Time;durP1;ratioP1;P1;durP2;ratioP2;P2;SDS_P1;SDS_P2;PMS_P1;PMS_P2;Temp;Humidity;BMP_temperature;BMP_pressure;BME280_temperature;BME280_humidity;BME280_pressure;Samples;Min_cycle;Max_cycle;Signal;HPM_P1;HPM_P2
2023/03/28 00:01:31;;;;;;;23.20;22.40;;;;;;;-0.29;100.00;101978.53;5020054;28;20477;-48
2023/03/28 00:04:00;;;;;;;22.80;22.00;;;;;;;-0.38;100.00;101983.50;5019413;28;20997;-45
2023/03/28 00:06:28;;;;;;;24.20;23.40;;;;;;;-0.33;100.00;101991.94;5019068;28;20491;-42
2023/03/28 00:08:55;;;;;;;24.50;23.60;;;;;;;-0.32;100.00;101997.06;5021284;28;20832;-45
2023/03/28 00:11:24;;;;;;;24.00;23.20;;;;;;;-0.33;100.00;102000.63;5019958;28;20523;-43
2023/03/28 00:13:56;;;;;;;25.43;24.53;;;;;;;-0.31;100.00;102005.78;5021104;28;20435;-45
2023/03/28 00:16:30;;;;;;;25.17;24.27;;;;;;;-0.36;100.00;102007.88;5020457;28;20467;-44
2023/03/28 00:19:00;;;;;;;23.07;22.30;;;;;;;-0.43;100.00;102009.16;5021163;28;20506;-42
2023/03/28 00:21:30;;;;;;;23.73;22.83;;;;;;;-0.42;100.00;102008.25;5020979;28;20480;-45
2023/03/28 00:24:01;;;;;;;23.50;22.70;;;;;;;-0.42;100.00;102013.47;5020949;28;20433;-43
2023/03/28 00:26:31;;;;;;;24.30;23.30;;;;;;;-0.41;100.00;102009.91;5020265;28;20530;-45
2023/03/28 00:29:00;;;;;;;24.47;23.67;;;;;;;-0.39;100.00;102010.66;5020618;28;20429;-46
2023/03/28 00:31:30;;;;;;;23.80;22.70;;;;;;;-0.46;100.00;102018.06;5020866;28;20437;-43
2023/03/28 00:33:58;;;;;;;25.57;24.77;;;;;;;-0.39;100.00;102023.78;5020683;28;20931;-47
2023/03/28 00:36:28;;;;;;;25.70;24.70;;;;;;;-0.41;100.00;102021.22;5018897;28;20569;-44
2023/03/28 00:38:56;;;;;;;24.43;23.63;;;;;;;-0.36;100.00;102023.59;5019636;28;20433;-43
2023/03/28 00:41:29;;;;;;;23.40;22.60;;;;;;;-0.40;100.00;102029.94;5019157;28;21032;-44
2023/03/28 00:43:59;;;;;;;24.53;23.63;;;;;;;-0.41;100.00;102021.22;5019448;28;20463;-42
2023/03/28 00:46:32;;;;;;;25.70;24.80;;;;;;;-0.37;100.00;102027.13;5020108;28;20548;-46
2023/03/28 00:49:03;;;;;;;23.47;22.63;;;;;;;-0.39;100.00;102015.91;5013898;28;20425;-44
2023/03/28 00:51:34;;;;;;;24.57;23.67;;;;;;;-0.39;100.00;102022.00;5012081;28;20440;-44
2023/03/28 00:54:05;;;;;;;24.23;23.33;;;;;;;-0.35;100.00;102030.50;5012163;28;20432;-46
2023/03/28 00:56:36;;;;;;;27.43;24.93;;;;;;;-0.36;100.00;102024.41;5011743;28;20496;-46
2023/03/28 00:59:08;;;;;;;24.50;23.60;;;;;;;-0.35;100.00;102025.25;5012084;28;20520;-43
2023/03/28 01:01:37;;;;;;;24.23;23.43;;;;;;;-0.33;100.00;102033.88;5012014;28;20531;-44
2023/03/28 01:04:08;;;;;;;23.40;22.60;;;;;;;-0.40;100.00;102028.16;5011911;28;20441;-47
2023/03/28 01:06:40;;;;;;;25.10;24.20;;;;;;;-0.39;100.00;102029.03;5011597;28;20531;-45
2023/03/28 01:09:09;;;;;;;23.57;22.77;;;;;;;-0.40;100.00;102041.28;5012253;28;20429;-43
2023/03/28 01:11:40;;;;;;;24.07;23.17;;;;;;;-0.37;100.00;102040.25;5011933;28;20990;-43
2023/03/28 01:14:12;;;;;;;24.90;24.00;;;;;;;-0.35;100.00;102035.72;5012256;28;20433;-44
2023/03/28 01:16:41;;;;;;;23.27;22.40;;;;;;;-0.37;100.00;102033.22;5011468;28;20472;-43
2023/03/28 01:19:20;;;;;;;23.90;23.00;;;;;;;-0.33;100.00;102039.13;5011777;28;20483;-47
2023/03/28 01:22:13;;;;;;;24.83;23.90;;;;;;;-0.34;100.00;102045.28;5011564;28;20540;-44
2023/03/28 01:25:11;;;;;;;24.03;23.23;;;;;;;-0.37;100.00;102042.84;4993233;28;20433;-45
2023/03/28 01:27:50;;;;;;;25.40;24.50;;;;;;;-0.35;100.00;102047.06;4997451;28;20460;-43
2023/03/28 01:30:50;;;;;;;26.00;25.07;;;;;;;-0.35;100.00;102049.69;5012158;28;20528;-43
2023/03/28 01:33:41;;;;;;;26.17;25.10;;;;;;;-0.33;100.00;102049.59;5010113;28;20954;-43
2023/03/28 01:36:46;;;;;;;27.53;26.47;;;;;;;-0.31;100.00;102053.81;5011284;28;20469;-43
2023/03/28 01:39:26;;;;;;;26.70;25.80;;;;;;;-0.30;100.00;102063.34;5011735;28;20436;-43
2023/03/28 01:42:02;;;;;;;27.50;26.40;;;;;;;-0.27;100.00;102057.91;5011292;28;20472;-46
2023/03/28 01:44:38;;;;;;;27.77;26.57;;;;;;;-0.29;100.00;102062.41;5011885;28;20439;-43
2023/03/28 01:47:13;;;;;;;27.40;26.50;;;;;;;-0.26;100.00;102061.38;5011109;28;20479;-44
2023/03/28 01:49:47;;;;;;;28.27;27.17;;;;;;;-0.29;100.00;102067.66;5011628;28;20444;-44
2023/03/28 01:52:21;;;;;;;26.80;25.90;;;;;;;-0.32;100.00;102062.59;5011471;28;20815;-43
2023/03/28 01:54:57;;;;;;;26.63;25.63;;;;;;;-0.29;100.00;102067.66;5011594;28;20953;-44
2023/03/28 01:57:29;;;;;;;27.07;25.97;;;;;;;-0.33;100.00;102070.56;5010945;28;20838;-44
2023/03/28 02:00:10;;;;;;;27.53;26.53;;;;;;;-0.29;100.00;102058.94;5011821;28;20433;-43
2023/03/28 02:02:41;;;;;;;25.73;24.83;;;;;;;-0.30;100.00;102062.53;5011120;28;20473;-48
2023/03/28 02:05:14;;;;;;;24.83;23.53;;;;;;;-0.37;100.00;102066.44;5010935;28;20444;-43
2023/03/28 02:07:44;;;;;;;24.80;23.90;;;;;;;-0.46;100.00;102064.38;5011845;28;20435;-44
2023/03/28 02:10:15;;;;;;;24.00;23.03;;;;;;;-0.55;100.00;102063.19;5011458;28;20923;-43
2023/03/28 02:12:47;;;;;;;22.70;22.00;;;;;;;-0.65;100.00;102057.66;5011531;28;20519;-46
2023/03/28 02:15:17;;;;;;;23.13;22.33;;;;;;;-0.74;100.00;102058.19;5010801;28;20477;-43
2023/03/28 02:17:50;;;;;;;24.10;22.87;;;;;;;-0.78;100.00;102069.81;5011866;28;20437;-46
2023/03/28 02:20:24;;;;;;;24.50;23.47;;;;;;;-0.84;100.00;102062.31;5011393;28;20417;-46
2023/03/28 02:22:58;;;;;;;26.03;25.03;;;;;;;-0.91;100.00;102055.75;5011279;28;20480;-46
2023/03/28 02:25:27;;;;;;;26.87;25.77;;;;;;;-0.96;100.00;102049.94;5010905;28;20469;-47
2023/03/28 02:28:00;;;;;;;29.57;28.17;;;;;;;-1.00;100.00;102061.53;5011156;28;20467;-42
2023/03/28 02:30:27;;;;;;;28.43;27.20;;;;;;;-1.04;100.00;102067.00;5014977;28;20436;-45
2023/03/28 02:32:59;;;;;;;27.40;26.10;;;;;;;-1.09;100.00;102062.06;5014643;28;20433;-43
2023/03/28 02:35:38;;;;;;;28.50;27.10;;;;;;;-1.13;100.00;102063.16;5014263;28;20461;-44
2023/03/28 02:38:14;;;;;;;29.73;28.17;;;;;;;-1.16;100.00;102058.09;5014553;28;20436;-43
2023/03/28 02:40:57;;;;;;;29.93;28.53;;;;;;;-1.18;100.00;102063.44;5014852;28;20437;-42
2023/03/28 02:43:51;;;;;;;26.87;25.70;;;;;;;-1.20;100.00;102064.47;5014275;28;20977;-43
2023/03/28 02:46:28;;;;;;;26.07;25.07;;;;;;;-1.23;100.00;102069.88;5013995;28;20469;-42
2023/03/28 02:49:17;;;;;;;27.70;26.47;;;;;;;-1.27;100.00;102063.97;5014694;28;20469;-43
2023/03/28 02:51:51;;;;;;;27.17;26.07;;;;;;;-1.29;100.00;102065.00;5014315;28;20435;-43
2023/03/28 02:54:27;;;;;;;26.17;25.17;;;;;;;-1.30;100.00;102068.53;5014290;28;20425;-45
2023/03/28 02:57:05;;;;;;;25.13;24.23;;;;;;;-1.31;100.00;102064.22;5013678;28;20479;-43
2023/03/28 02:59:38;;;;;;;24.57;23.67;;;;;;;-1.33;100.00;102068.72;5014214;28;20531;-42
2023/03/28 03:02:07;;;;;;;24.43;23.53;;;;;;;-1.37;100.00;102078.50;5014016;28;20503;-44
2023/03/28 03:04:35;;;;;;;24.70;23.80;;;;;;;-1.41;100.00;102074.41;5014070;28;20786;-42
2023/03/28 03:07:02;;;;;;;24.63;23.73;;;;;;;-1.43;100.00;102083.25;5007379;28;20469;-43
2023/03/28 03:09:32;;;;;;;23.77;22.77;;;;;;;-1.47;100.00;102090.44;5013930;28;20434;-44
2023/03/28 03:12:01;;;;;;;23.43;22.50;;;;;;;-1.51;100.00;102080.22;5013943;28;20425;-42
2023/03/28 03:14:28;;;;;;;23.80;22.93;;;;;;;-1.54;100.00;102083.00;5013883;28;20433;-42
2023/03/28 03:16:56;;;;;;;22.43;21.73;;;;;;;-1.58;100.00;102079.72;5006536;28;20532;-42
2023/03/28 03:19:24;;;;;;;23.00;22.10;;;;;;;-1.59;100.00;102085.91;5013842;28;20439;-46
2023/03/28 03:21:53;;;;;;;22.73;22.00;;;;;;;-1.61;100.00;102085.13;5013689;28;20476;-46
2023/03/28 03:24:20;;;;;;;22.70;22.00;;;;;;;-1.64;100.00;102081.88;5013931;28;20437;-43
2023/03/28 03:26:48;;;;;;;22.67;21.77;;;;;;;-1.66;100.00;102095.00;5013357;28;20822;-44
2023/03/28 03:29:17;;;;;;;23.67;22.67;;;;;;;-1.67;100.00;102095.13;5013935;28;20440;-48
2023/03/28 03:31:46;;;;;;;22.43;21.63;;;;;;;-1.69;100.00;102098.66;5013184;28;20445;-43
2023/03/28 03:34:13;;;;;;;24.50;23.13;;;;;;;-1.69;100.00;102095.19;5013647;28;20433;-45
2023/03/28 03:36:41;;;;;;;24.80;23.70;;;;;;;-1.70;100.00;102093.50;5013476;28;20556;-43
2023/03/28 03:39:09;;;;;;;23.27;22.47;;;;;;;-1.70;100.00;102094.34;5013030;28;20465;-43
2023/03/28 03:41:37;;;;;;;23.70;22.90;;;;;;;-1.68;100.00;102102.09;5013227;28;20456;-46
2023/03/28 03:44:05;;;;;;;23.67;22.87;;;;;;;-1.66;100.00;102100.25;5013659;28;20433;-44
2023/03/28 03:46:34;;;;;;;23.33;22.50;;;;;;;-1.63;100.00;102099.22;5013146;28;20974;-45
2023/03/28 03:49:02;;;;;;;23.00;22.20;;;;;;;-1.60;100.00;102101.66;5012777;28;20489;-43
2023/03/28 03:51:29;;;;;;;23.23;22.23;;;;;;;-1.58;100.00;102095.41;5012984;28;20429;-43
2023/03/28 03:53:57;;;;;;;23.80;23.00;;;;;;;-1.57;100.00;102102.34;5013243;28;20780;-42
2023/03/28 03:56:25;;;;;;;23.60;22.60;;;;;;;-1.55;100.00;102097.03;5013100;28;20556;-44
2023/03/28 03:58:53;;;;;;;23.67;22.83;;;;;;;-1.53;100.00;102105.63;5012790;28;20544;-45
2023/03/28 04:01:21;;;;;;;24.00;23.20;;;;;;;-1.50;100.00;102100.25;5012797;28;20433;-46
2023/03/28 04:03:50;;;;;;;25.10;24.20;;;;;;;-1.50;100.00;102097.63;5012856;28;20559;-43
2023/03/28 04:06:18;;;;;;;24.80;23.90;;;;;;;-1.49;100.00;102107.16;5013324;28;20487;-44
2023/03/28 04:08:46;;;;;;;26.20;24.50;;;;;;;-1.47;100.00;102107.91;5012660;28;20469;-44
2023/03/28 04:11:14;;;;;;;27.63;26.43;;;;;;;-1.47;100.00;102103.53;5012912;28;21006;-44
2023/03/28 04:13:41;;;;;;;27.20;26.07;;;;;;;-1.46;100.00;102107.81;5012710;28;20440;-46
2023/03/28 04:16:10;;;;;;;26.03;25.03;;;;;;;-1.46;100.00;102114.81;5012826;28;20975;-43
2023/03/28 04:18:38;;;;;;;27.57;26.40;;;;;;;-1.43;100.00;102101.56;5010932;28;20864;-45
2023/03/28 04:21:09;;;;;;;27.40;26.10;;;;;;;-1.42;100.00;102111.97;5012656;28;20573;-44
2023/03/28 04:23:42;;;;;;;27.77;26.67;;;;;;;-1.42;100.00;102114.56;5012409;28;20469;-44
2023/03/28 04:26:19;;;;;;;28.37;27.17;;;;;;;-1.41;100.00;102113.66;5012468;28;20460;-43
2023/03/28 04:28:47;;;;;;;29.17;27.97;;;;;;;-1.41;100.00;102120.66;5012206;28;20600;-44
2023/03/28 04:31:15;;;;;;;28.30;27.30;;;;;;;-1.42;100.00;102111.97;5012533;28;20433;-45
2023/03/28 04:33:44;;;;;;;28.63;27.50;;;;;;;-1.44;100.00;102119.06;5012473;28;20788;-43
2023/03/28 04:36:15;;;;;;;29.30;28.00;;;;;;;-1.48;100.00;102128.00;5012359;28;20966;-43
2023/03/28 04:38:44;;;;;;;29.40;28.10;;;;;;;-1.49;100.00;102128.91;5012282;28;20460;-45
2023/03/28 04:41:15;;;;;;;28.17;26.87;;;;;;;-1.51;100.00;102129.94;5012435;28;20461;-43
2023/03/28 04:43:43;;;;;;;29.40;28.20;;;;;;;-1.53;100.00;102131.81;5012394;28;20468;-43
2023/03/28 04:46:11;;;;;;;28.23;27.13;;;;;;;-1.55;100.00;102136.28;5012503;28;20459;-46
2023/03/28 04:48:39;;;;;;;29.23;28.03;;;;;;;-1.56;100.00;102138.06;5008737;28;20477;-44
2023/03/28 04:51:07;;;;;;;27.90;26.90;;;;;;;-1.57;100.00;102138.13;5011713;28;20839;-43
2023/03/28 04:53:36;;;;;;;28.27;26.97;;;;;;;-1.56;100.00;102142.44;5011750;28;20503;-46
2023/03/28 04:56:05;;;;;;;28.90;27.60;;;;;;;-1.57;100.00;102144.19;5012125;28;20970;-44
2023/03/28 04:58:32;;;;;;;28.70;27.40;;;;;;;-1.59;100.00;102153.91;5011503;28;21017;-43
2023/03/28 05:01:02;;;;;;;28.00;26.83;;;;;;;-1.58;100.00;102144.31;5012033;28;20487;-45
2023/03/28 05:03:30;;;;;;;28.43;27.20;;;;;;;-1.57;100.00;102154.66;5011843;28;20476;-45
2023/03/28 05:05:58;;;;;;;28.10;26.70;;;;;;;-1.55;100.00;102158.03;5011908;28;20457;-44
2023/03/28 05:08:26;;;;;;;28.60;27.50;;;;;;;-1.54;100.00;102159.72;5011558;28;20472;-46
2023/03/28 05:10:55;;;;;;;27.37;26.37;;;;;;;-1.50;100.00;102170.88;5012088;28;20439;-44
2023/03/28 05:13:24;;;;;;;27.87;26.57;;;;;;;-1.46;100.00;102173.22;5011773;28;20524;-44
2023/03/28 05:15:52;;;;;;;28.70;27.40;;;;;;;-1.42;100.00;102176.50;5011927;28;20532;-45
2023/03/28 05:18:20;;;;;;;28.33;27.10;;;;;;;-1.37;100.00;102180.56;5006128;28;20473;-44
2023/03/28 05:20:48;;;;;;;28.30;27.17;;;;;;;-1.33;100.00;102186.47;5011636;28;20440;-44
2023/03/28 05:23:15;;;;;;;27.70;26.33;;;;;;;-1.29;100.00;102182.78;5011534;28;20514;-42
2023/03/28 05:25:43;;;;;;;28.03;26.80;;;;;;;-1.24;100.00;102186.81;5011738;28;20456;-44
2023/03/28 05:28:12;;;;;;;28.50;27.30;;;;;;;-1.17;100.00;102195.16;5011444;28;20460;-44
2023/03/28 05:30:40;;;;;;;28.50;27.30;;;;;;;-1.09;100.00;102192.97;5011874;28;20433;-44
2023/03/28 05:33:08;;;;;;;29.07;27.50;;;;;;;-0.99;100.00;102186.28;5011584;28;20435;-44
2023/03/28 05:35:36;;;;;;;27.03;25.93;;;;;;;-0.75;100.00;102194.50;5011637;28;20456;-43
2023/03/28 05:38:03;;;;;;;30.07;28.77;;;;;;;-0.45;100.00;102187.47;5011573;28;20429;-43
2023/03/28 05:40:32;;;;;;;26.00;25.00;;;;;;;-0.02;100.00;102201.47;5011826;28;20432;-43
2023/03/28 05:42:59;;;;;;;26.70;25.40;;;;;;;0.30;100.00;102199.50;5011533;28;20495;-47
2023/03/28 05:45:28;;;;;;;26.37;25.27;;;;;;;0.85;100.00;102199.47;5011713;28;20460;-47
2023/03/28 05:47:56;;;;;;;25.13;23.97;;;;;;;1.81;100.00;102207.06;5009119;28;20437;-44
2023/03/28 05:50:25;;;;;;;24.63;23.63;;;;;;;2.75;100.00;102212.59;5011898;28;20433;-43
2023/03/28 05:52:53;;;;;;;24.33;23.30;;;;;;;3.71;100.00;102201.03;5011619;28;20799;-45
2023/03/28 05:55:20;;;;;;;23.70;22.10;;;;;;;4.56;100.00;102199.63;5011570;28;20465;-46
2023/03/28 05:57:48;;;;;;;23.53;22.63;;;;;;;5.05;100.00;102204.41;5011696;28;20791;-44
2023/03/28 06:00:17;;;;;;;22.80;21.90;;;;;;;5.14;100.00;102202.84;5011243;28;20468;-45
2023/03/28 06:02:49;;;;;;;22.33;21.17;;;;;;;5.44;100.00;102195.00;5011341;28;20436;-49
2023/03/28 06:05:17;;;;;;;20.90;20.10;;;;;;;6.09;100.00;102187.63;5015310;28;20461;-44
2023/03/28 06:07:45;;;;;;;21.67;20.60;;;;;;;6.71;100.00;102189.25;5015344;28;20934;-46
2023/03/28 06:10:14;;;;;;;23.27;21.93;;;;;;;7.44;100.00;102180.75;5014747;28;20461;-45
2023/03/28 06:12:42;;;;;;;21.30;20.40;;;;;;;7.82;100.00;102188.66;5014739;28;20432;-43
2023/03/28 06:15:11;;;;;;;20.43;19.63;;;;;;;8.21;100.00;102185.91;5015519;28;20439;-46
2023/03/28 06:17:39;;;;;;;19.97;19.07;;;;;;;8.32;100.00;102186.56;5015169;28;20434;-43
2023/03/28 06:20:10;;;;;;;18.93;18.20;;;;;;;8.70;100.00;102187.34;5014573;28;20465;-44
2023/03/28 06:22:38;;;;;;;18.77;18.00;;;;;;;9.06;100.00;102189.06;5014792;28;20564;-46
2023/03/28 06:25:07;;;;;;;18.30;17.60;;;;;;;9.24;100.00;102187.25;5014800;28;20994;-52
2023/03/28 06:27:34;;;;;;;18.03;16.97;;;;;;;9.35;100.00;102191.47;5014501;28;20990;-45
2023/03/28 06:30:03;;;;;;;17.23;16.63;;;;;;;9.60;100.00;102187.19;5014482;28;20461;-43
2023/03/28 06:32:31;;;;;;;16.10;15.60;;;;;;;9.90;100.00;102184.91;5014861;28;20437;-44
2023/03/28 06:34:58;;;;;;;16.30;15.80;;;;;;;10.47;100.00;102190.56;5014602;28;20591;-47
2023/03/28 06:37:27;;;;;;;18.87;17.87;;;;;;;10.91;100.00;102189.38;5014610;28;20798;-46
2023/03/28 06:39:55;;;;;;;18.23;17.43;;;;;;;11.30;100.00;102192.25;5014142;28;20460;-47
2023/03/28 06:42:23;;;;;;;16.37;15.77;;;;;;;11.47;100.00;102190.41;5014334;28;20922;-45
2023/03/28 06:44:51;;;;;;;13.93;13.43;;;;;;;11.59;100.00;102195.25;5014411;28;20527;-44
2023/03/28 06:47:19;;;;;;;14.13;13.23;;;;;;;11.92;100.00;102196.09;5014507;28;20453;-44
2023/03/28 06:49:47;;;;;;;13.23;12.77;;;;;;;12.19;100.00;102194.84;5011877;28;20483;-46
2023/03/28 06:52:15;;;;;;;12.80;12.40;;;;;;;12.39;100.00;102203.34;5014467;28;20883;-44
2023/03/28 06:54:44;;;;;;;13.03;12.53;;;;;;;12.56;100.00;102211.13;5014441;28;20437;-46
2023/03/28 06:57:15;;;;;;;13.77;13.20;;;;;;;12.72;100.00;102212.91;5014348;28;20449;-45
2023/03/28 06:59:43;;;;;;;12.93;12.37;;;;;;;12.81;100.00;102214.53;5013951;28;20471;-45
2023/03/28 07:02:11;;;;;;;13.83;13.13;;;;;;;13.02;100.00;102221.94;5014228;28;20484;-48
2023/03/28 07:04:39;;;;;;;13.87;12.93;;;;;;;12.88;88.12;102225.34;5014382;28;20477;-45
2023/03/28 07:07:08;;;;;;;14.20;13.60;;;;;;;12.72;86.29;102224.41;5014161;28;20911;-48
2023/03/28 07:09:36;;;;;;;14.30;13.70;;;;;;;12.47;86.15;102222.88;5013879;28;20461;-45
2023/03/28 07:12:05;;;;;;;14.30;13.80;;;;;;;12.35;79.36;102236.78;5014090;28;20511;-45
2023/03/28 07:14:33;;;;;;;14.37;13.67;;;;;;;12.16;81.21;102238.00;5013939;28;20440;-47
2023/03/28 07:17:01;;;;;;;14.93;14.00;;;;;;;11.79;79.28;102245.75;5014307;28;20457;-46
2023/03/28 07:19:28;;;;;;;14.80;14.27;;;;;;;11.45;79.80;102246.69;5012819;28;20885;-48
2023/03/28 07:21:56;;;;;;;15.50;14.90;;;;;;;10.99;80.47;102253.44;5014519;28;20826;-47
2023/03/28 07:24:24;;;;;;;14.90;14.30;;;;;;;10.59;84.19;102250.63;5014756;28;20477;-45
2023/03/28 07:26:52;;;;;;;14.23;13.53;;;;;;;10.33;88.70;102253.34;5014419;28;20983;-43
2023/03/28 07:29:40;;;;;;;14.00;13.30;;;;;;;9.96;94.04;102256.25;5014396;28;20540;-46
2023/03/28 07:32:07;;;;;;;14.03;13.30;;;;;;;9.68;97.32;102257.34;5014505;28;20433;-46
2023/03/28 07:34:35;;;;;;;13.40;12.40;;;;;;;9.31;96.06;102260.19;5014845;28;20938;-45
2023/03/28 07:37:04;;;;;;;13.93;12.77;;;;;;;9.19;98.98;102264.06;5015005;28;20958;-45
2023/03/28 07:39:33;;;;;;;12.17;11.57;;;;;;;8.98;97.06;102260.00;5014550;28;20464;-45
2023/03/28 07:42:01;;;;;;;12.13;11.27;;;;;;;8.85;97.58;102266.50;5014519;28;20429;-45
2023/03/28 07:44:28;;;;;;;13.00;11.97;;;;;;;8.75;94.59;102262.22;5014479;28;20472;-47
2023/03/28 07:46:57;;;;;;;12.90;12.10;;;;;;;8.94;100.00;102263.91;5014205;28;20457;-44
2023/03/28 07:49:25;;;;;;;13.27;12.53;;;;;;;9.10;98.80;102264.13;5011227;28;20468;-46
2023/03/28 07:51:53;;;;;;;13.27;12.40;;;;;;;9.31;97.62;102265.53;5014002;28;20437;-45
2023/03/28 07:54:21;;;;;;;13.13;12.47;;;;;;;9.59;97.47;102263.59;5014215;28;20440;-44
2023/03/28 07:56:48;;;;;;;14.03;12.77;;;;;;;9.75;91.54;102266.41;5013995;28;20941;-43
2023/03/28 07:59:16;;;;;;;13.20;12.43;;;;;;;10.16;98.96;102272.91;5013750;28;20472;-44
2023/03/28 08:01:46;;;;;;;12.70;12.20;;;;;;;10.15;87.14;102275.72;5014088;28;20474;-45
2023/03/28 08:04:15;;;;;;;12.03;11.43;;;;;;;10.12;81.36;102278.69;5014342;28;20480;-46
2023/03/28 08:06:44;;;;;;;13.33;12.27;;;;;;;9.71;77.42;102277.50;5014287;28;20495;-43
2023/03/28 08:09:14;;;;;;;13.07;12.27;;;;;;;9.11;69.41;102276.44;5013483;28;20820;-45
2023/03/28 08:11:43;;;;;;;11.30;10.60;;;;;;;8.24;69.33;102287.41;5013743;28;20484;-44
2023/03/28 08:14:13;;;;;;;11.47;10.60;;;;;;;7.66;72.16;102286.66;5014353;28;20425;-43
2023/03/28 08:16:41;;;;;;;9.00;8.70;;;;;;;7.46;71.23;102281.50;5014038;28;20459;-46
2023/03/28 08:19:10;;;;;;;9.27;8.97;;;;;;;7.53;72.06;102291.41;5011038;28;20565;-43
2023/03/28 08:21:40;;;;;;;10.20;9.60;;;;;;;7.19;80.94;102296.28;5013893;28;20931;-44
2023/03/28 08:24:09;;;;;;;9.23;8.67;;;;;;;7.05;73.06;102298.44;5014023;28;20471;-44
2023/03/28 08:26:42;;;;;;;8.70;8.30;;;;;;;7.03;72.12;102290.66;5012806;28;20452;-45
2023/03/28 08:29:10;;;;;;;9.27;8.43;;;;;;;7.04;72.75;102296.78;5013601;28;20461;-46
2023/03/28 08:31:38;;;;;;;8.47;7.80;;;;;;;7.26;76.71;102295.72;5013732;28;20441;-44
2023/03/28 08:34:05;;;;;;;8.67;8.20;;;;;;;7.23;74.65;102302.13;5013814;28;20846;-46
2023/03/28 08:36:33;;;;;;;9.27;8.77;;;;;;;7.38;73.74;102302.59;5014044;28;20475;-43
2023/03/28 08:39:04;;;;;;;8.03;7.67;;;;;;;7.35;71.66;102310.81;5013400;28;20467;-42
2023/03/28 08:41:59;;;;;;;8.77;8.30;;;;;;;7.47;70.92;102307.88;5013284;28;20941;-44
2023/03/28 08:44:50;;;;;;;8.20;7.70;;;;;;;7.59;74.42;102320.06;5014270;28;20433;-50
2023/03/28 08:47:25;;;;;;;8.93;7.90;;;;;;;7.55;69.62;102313.38;5013964;28;20465;-45
2023/03/28 08:49:56;;;;;;;8.13;7.73;;;;;;;7.59;66.92;102311.25;5011815;28;20551;-43
2023/03/28 08:52:24;;;;;;;7.20;6.90;;;;;;;7.79;69.46;102308.44;5013450;28;20433;-44
2023/03/28 08:55:00;;;;;;;8.07;7.43;;;;;;;7.92;66.87;102304.66;5013762;28;20429;-45
2023/03/28 08:57:30;;;;;;;7.43;7.10;;;;;;;8.18;74.04;102297.78;5013378;28;20477;-43
2023/03/28 09:00:07;;;;;;;7.63;7.03;;;;;;;8.53;78.18;102303.31;5012900;28;20460;-45
2023/03/28 09:02:35;;;;;;;8.00;7.40;;;;;;;8.90;78.33;102296.16;5013184;28;20421;-49
2023/03/28 09:05:04;;;;;;;7.30;7.00;;;;;;;9.13;69.23;102301.91;5013718;28;20569;-44
2023/03/28 09:07:58;;;;;;;7.40;7.03;;;;;;;9.14;67.85;102298.25;5013414;28;20524;-49
2023/03/28 09:10:39;;;;;;;7.77;7.37;;;;;;;9.32;70.09;102304.44;5013370;28;20842;-45
2023/03/28 09:13:21;;;;;;;7.53;7.23;;;;;;;9.14;57.67;102298.25;5013486;28;20799;-46
2023/03/28 09:16:00;;;;;;;7.17;6.77;;;;;;;9.22;57.83;102303.69;5012980;28;20453;-44
2023/03/28 09:18:44;;;;;;;6.83;6.33;;;;;;;9.26;60.78;102299.72;5013109;28;20429;-46
2023/03/28 09:21:18;;;;;;;6.60;6.20;;;;;;;8.96;57.14;102292.06;5005900;28;20465;-47
2023/03/28 09:24:10;;;;;;;6.67;6.10;;;;;;;8.89;60.93;102296.31;5013032;28;20807;-44
2023/03/28 09:26:44;;;;;;;7.00;6.30;;;;;;;8.38;59.89;102302.09;5012602;28;20484;-46
2023/03/28 09:29:16;;;;;;;6.57;6.17;;;;;;;8.17;60.71;102290.81;5012778;28;20463;-46
2023/03/28 09:31:47;;;;;;;10.53;6.20;;;;;;;8.18;66.29;102295.94;5013055;28;20491;-44
2023/03/28 09:34:21;;;;;;;6.83;6.23;;;;;;;8.66;67.09;102293.19;5013150;28;20429;-43
2023/03/28 09:36:53;;;;;;;7.97;7.37;;;;;;;8.80;71.67;102289.22;5013101;28;20449;-44
2023/03/28 09:39:32;;;;;;;7.10;6.37;;;;;;;8.84;62.60;102277.31;5016344;28;20468;-43
2023/03/28 09:42:08;;;;;;;5.93;5.63;;;;;;;9.14;64.83;102278.81;5016562;28;20421;-43
2023/03/28 09:44:41;;;;;;;6.23;5.77;;;;;;;9.48;66.90;102285.13;5016901;28;20440;-46
2023/03/28 09:47:21;;;;;;;6.90;6.00;;;;;;;9.62;61.55;102278.41;5016617;28;20610;-46
2023/03/28 09:49:49;;;;;;;6.63;6.23;;;;;;;9.62;63.03;102287.25;5016395;28;20866;-49
2023/03/28 09:52:30;;;;;;;5.97;5.67;;;;;;;9.87;66.01;102286.50;5016702;28;20460;-44
2023/03/28 09:54:59;;;;;;;7.27;6.57;;;;;;;9.99;65.39;102287.91;5016756;28;20433;-47
2023/03/28 09:58:01;;;;;;;9.40;5.57;;;;;;;9.47;58.62;102285.31;5016471;28;20447;-47
2023/03/28 10:00:34;;;;;;;5.90;5.40;;;;;;;8.98;61.71;102292.75;5016537;28;20467;-47
2023/03/28 10:03:02;;;;;;;6.03;5.73;;;;;;;9.42;64.75;102291.06;5015989;28;20429;-45
2023/03/28 10:05:36;;;;;;;5.90;5.60;;;;;;;9.86;64.32;102290.13;5016387;28;20481;-46
2023/03/28 10:08:18;;;;;;;6.70;5.53;;;;;;;9.80;63.63;102297.91;5016321;28;20433;-46
2023/03/28 10:10:55;;;;;;;5.37;5.00;;;;;;;9.90;60.30;102294.19;5016089;28;20815;-46
2023/03/28 10:13:25;;;;;;;6.07;5.30;;;;;;;10.00;57.69;102296.75;5016294;28;20436;-49
2023/03/28 10:15:56;;;;;;;5.63;5.33;;;;;;;9.99;58.94;102297.72;5016650;28;20480;-45
2023/03/28 10:18:27;;;;;;;5.80;5.40;;;;;;;9.95;58.04;102289.22;5016117;28;20472;-46
2023/03/28 10:20:55;;;;;;;6.50;5.27;;;;;;;9.55;59.19;102288.03;5012732;28;20471;-46
2023/03/28 10:23:24;;;;;;;5.40;5.10;;;;;;;9.63;61.23;102280.09;5016087;28;20931;-46
2023/03/28 10:25:53;;;;;;;5.63;5.03;;;;;;;9.87;61.11;102282.97;5016013;28;20480;-45
2023/03/28 10:28:31;;;;;;;6.20;5.70;;;;;;;9.78;59.31;102283.91;5016262;28;20435;-47
2023/03/28 10:31:01;;;;;;;6.33;5.20;;;;;;;10.09;61.00;102279.00;5015071;28;20503;-47
2023/03/28 10:33:33;;;;;;;5.37;4.93;;;;;;;10.25;58.91;102271.94;5015904;28;20787;-43
2023/03/28 10:36:04;;;;;;;5.33;4.93;;;;;;;10.35;59.65;102282.53;5015757;28;20455;-44
2023/03/28 10:38:37;;;;;;;5.73;5.20;;;;;;;10.49;59.80;102281.91;5015921;28;20424;-43
2023/03/28 10:41:10;;;;;;;5.70;5.10;;;;;;;10.47;55.72;102282.09;5014883;28;21036;-44
2023/03/28 10:43:41;;;;;;;5.33;4.93;;;;;;;9.86;61.50;102287.47;5015025;28;20437;-44
2023/03/28 10:46:14;;;;;;;9.43;5.10;;;;;;;10.03;60.69;102283.94;5015411;28;20484;-44
2023/03/28 10:48:47;;;;;;;5.33;4.43;;;;;;;10.07;59.80;102291.63;5014842;28;20481;-45
2023/03/28 10:51:20;;;;;;;4.87;4.57;;;;;;;9.80;57.57;102279.25;5014891;28;21008;-44
2023/03/28 10:54:03;;;;;;;5.70;5.03;;;;;;;9.69;61.95;102288.34;5015196;28;20487;-44
2023/03/28 10:56:37;;;;;;;6.13;5.53;;;;;;;9.04;58.33;102289.50;5015243;28;20511;-48
2023/03/28 10:59:39;;;;;;;6.40;5.00;;;;;;;8.99;64.19;102290.94;5014495;28;20491;-44
2023/03/28 11:02:29;;;;;;;5.87;5.27;;;;;;;8.81;65.52;102297.03;5014768;28;20937;-44
2023/03/28 11:05:01;;;;;;;7.43;6.10;;;;;;;8.61;66.38;102289.28;5014900;28;20480;-47
2023/03/28 11:07:37;;;;;;;9.13;6.13;;;;;;;8.45;75.92;102287.28;5015159;28;20484;-46
2023/03/28 11:10:14;;;;;;;6.47;5.87;;;;;;;8.43;79.53;102285.72;5014782;28;20994;-46
2023/03/28 11:12:53;;;;;;;9.37;7.40;;;;;;;8.38;82.42;102283.50;5014992;28;20435;-46
2023/03/28 11:15:31;;;;;;;7.40;6.80;;;;;;;8.17;80.96;102283.66;5014942;28;20460;-46
2023/03/28 11:18:16;;;;;;;7.83;7.13;;;;;;;8.28;87.56;102278.22;5015210;28;20483;-48
2023/03/28 11:20:50;;;;;;;11.60;7.00;;;;;;;8.20;86.24;102277.22;5014754;28;20519;-48
2023/03/28 11:23:36;;;;;;;14.90;7.80;;;;;;;8.21;88.82;102284.22;5014664;28;20459;-49
2023/03/28 11:26:08;;;;;;;7.87;7.17;;;;;;;8.17;91.61;102286.31;5015077;28;20523;-44
2023/03/28 11:28:57;;;;;;;10.33;6.70;;;;;;;8.04;96.85;102285.78;5015035;28;20520;-45
2023/03/28 11:31:31;;;;;;;7.20;6.70;;;;;;;7.74;100.00;102291.25;5014488;28;20445;-46
2023/03/28 11:34:04;;;;;;;9.00;7.57;;;;;;;7.02;100.00;102296.06;5014708;28;20434;-43